Time;durP1;ratioP1;P1;durP2;ratioP2;P2;SDS_P1;SDS_P2;PMS_P1;PMS_P2;Temp;Humidity;BMP_temperature;BMP_pressure;BME280_temperature;BME280_humidity;BME280_pressure;Samples;Min_cycle;Max_cycle;Signal;HPM_P1;HPM_P2
2023/04/08 00:00:02;;;;;;;10.88;7.03;;;10.50;99.90;;;;;;5079860;28;20310;-66
2023/04/08 00:02:30;;;;;;;11.30;7.82;;;10.50;99.90;;;;;;5063922;28;20181;-66
2023/04/08 00:04:56;;;;;;;9.13;6.82;;;10.50;99.90;;;;;;5059577;28;20173;-66
2023/04/08 00:07:24;;;;;;;13.48;7.63;;;10.50;99.90;;;;;;5059532;28;20215;-66
2023/04/08 00:09:50;;;;;;;10.02;6.72;;;10.50;99.90;;;;;;5059705;28;20204;-66
2023/04/08 00:12:15;;;;;;;9.73;6.63;;;10.40;99.90;;;;;;5059445;28;20165;-66
2023/04/08 00:14:41;;;;;;;9.27;6.13;;;10.50;99.90;;;;;;5065129;28;20200;-68
2023/04/08 00:17:07;;;;;;;8.93;6.15;;;10.50;99.90;;;;;;5079294;28;20179;-66
2023/04/08 00:19:35;;;;;;;8.68;6.53;;;10.50;99.90;;;;;;5062436;28;20212;-66
2023/04/08 00:22:01;;;;;;;8.85;6.35;;;10.50;99.90;;;;;;5059293;28;20172;-66
2023/04/08 00:24:26;;;;;;;8.18;6.50;;;10.40;99.90;;;;;;5059329;28;20180;-66
2023/04/08 00:26:52;;;;;;;10.35;6.05;;;10.40;99.90;;;;;;5065460;28;20188;-66
2023/04/08 00:29:20;;;;;;;9.98;6.25;;;10.40;99.90;;;;;;5077629;28;20248;-66
2023/04/08 00:31:46;;;;;;;7.78;5.85;;;10.50;99.90;;;;;;5074028;28;20214;-66
2023/04/08 00:34:12;;;;;;;7.88;6.10;;;10.50;99.90;;;;;;5068088;28;20188;-67
2023/04/08 00:36:40;;;;;;;8.80;5.95;;;10.60;99.90;;;;;;5073343;28;20184;-67
2023/04/08 00:39:07;;;;;;;11.00;6.55;;;10.50;99.90;;;;;;5078561;28;20184;-67
2023/04/08 00:41:34;;;;;;;9.10;6.05;;;10.40;99.90;;;;;;5078606;28;20180;-67
2023/04/08 00:44:00;;;;;;;7.97;6.07;;;10.40;99.90;;;;;;5074357;28;20191;-66
2023/04/08 00:46:26;;;;;;;8.40;5.97;;;10.40;99.90;;;;;;5078394;28;20183;-67
2023/04/08 00:48:53;;;;;;;8.38;6.13;;;10.60;99.90;;;;;;5077781;28;20280;-67
2023/04/08 00:51:20;;;;;;;8.23;5.93;;;10.40;99.90;;;;;;5072798;28;20188;-67
2023/04/08 00:53:50;;;;;;;9.10;5.63;;;10.50;99.90;;;;;;5077147;28;20332;-67
2023/04/08 00:56:15;;;;;;;9.25;6.47;;;10.50;99.90;;;;;;5079068;28;20178;-66
2023/04/08 00:58:44;;;;;;;9.10;5.93;;;10.50;99.90;;;;;;5078914;28;20255;-66
2023/04/08 01:01:19;;;;;;;11.32;6.20;;;10.40;99.90;;;;;;5078942;28;20179;-66
2023/04/08 01:04:07;;;;;;;7.45;5.68;;;10.50;99.90;;;;;;5092729;28;20227;-67
2023/04/08 01:06:45;;;;;;;10.73;6.32;;;10.50;99.90;;;;;;5072029;28;20172;-67
2023/04/08 01:09:12;;;;;;;11.00;6.75;;;10.50;99.90;;;;;;5064192;28;20194;-67
2023/04/08 01:11:43;;;;;;;10.05;6.15;;;10.50;99.90;;;;;;5078917;28;20215;-66
2023/04/08 01:14:16;;;;;;;9.25;6.35;;;10.40;99.90;;;;;;5078706;28;20176;-67
2023/04/08 01:16:42;;;;;;;9.07;5.90;;;10.40;99.90;;;;;;5078874;28;20167;-66
2023/04/08 01:19:16;;;;;;;8.37;5.93;;;10.50;99.90;;;;;;5077710;28;20208;-67
2023/04/08 01:21:45;;;;;;;8.73;6.40;;;10.50;99.90;;;;;;5077234;28;20186;-66
2023/04/08 01:24:34;;;;;;;9.30;6.25;;;10.40;99.90;;;;;;5081222;28;20183;-66
2023/04/08 01:27:02;;;;;;;10.45;6.13;;;10.40;99.90;;;;;;5071142;28;20232;-65
2023/04/08 01:29:29;;;;;;;8.23;6.00;;;10.40;99.90;;;;;;5077624;28;20203;-65
2023/04/08 01:31:58;;;;;;;8.73;5.97;;;10.40;99.90;;;;;;5078364;28;20188;-65
2023/04/08 01:34:24;;;;;;;9.35;6.25;;;10.50;99.90;;;;;;5087993;28;20175;-65
2023/04/08 01:36:51;;;;;;;9.43;6.45;;;10.40;99.90;;;;;;5078106;28;20172;-66
2023/04/08 01:39:20;;;;;;;9.13;7.05;;;10.40;99.90;;;;;;5078098;28;20191;-65
2023/04/08 01:41:47;;;;;;;9.40;6.55;;;10.50;99.90;;;;;;5077931;28;20178;-65
2023/04/08 01:44:17;;;;;;;10.85;6.80;;;10.40;99.90;;;;;;5071084;28;20258;-66
2023/04/08 01:46:43;;;;;;;9.70;6.57;;;10.40;99.90;;;;;;5062507;28;20192;-66
2023/04/08 01:49:09;;;;;;;12.60;6.38;;;10.40;99.90;;;;;;5107137;28;20226;-66
2023/04/08 01:51:39;;;;;;;11.15;7.45;;;10.40;99.90;;;;;;5062072;28;20219;-66
2023/04/08 01:54:08;;;;;;;9.80;7.50;;;10.40;99.90;;;;;;5077893;28;20172;-67
2023/04/08 01:56:38;;;;;;;9.32;7.30;;;10.40;99.90;;;;;;5082685;28;20160;-66
2023/04/08 01:59:08;;;;;;;12.60;7.87;;;10.40;99.90;;;;;;5085150;28;20184;-65
2023/04/08 02:01:34;;;;;;;12.27;7.18;;;10.30;99.90;;;;;;5098263;28;20177;-66
2023/04/08 02:04:02;;;;;;;7.90;6.50;;;10.30;99.90;;;;;;5058555;28;20172;-65
2023/04/08 02:06:28;;;;;;;10.70;6.97;;;10.30;99.90;;;;;;5065141;28;20168;-67
2023/04/08 02:08:58;;;;;;;10.23;7.17;;;10.30;99.90;;;;;;5067553;28;20199;-66
2023/04/08 02:11:24;;;;;;;8.30;6.85;;;10.30;99.90;;;;;;5087758;28;20194;-67
2023/04/08 02:13:50;;;;;;;11.50;7.10;;;10.30;99.90;;;;;;5090356;28;20296;-67
2023/04/08 02:16:22;;;;;;;10.40;7.17;;;10.30;99.90;;;;;;5067237;28;20202;-66
2023/04/08 02:19:17;;;;;;;12.20;7.93;;;10.20;99.90;;;;;;5080056;28;20202;-67
2023/04/08 02:21:51;;;;;;;10.23;7.37;;;10.20;99.90;;;;;;5077972;28;20184;-68
2023/04/08 02:24:17;;;;;;;12.88;8.10;;;10.10;99.90;;;;;;5077035;28;20187;-66
2023/04/08 02:26:46;;;;;;;10.37;7.40;;;10.10;99.90;;;;;;5076740;28;20195;-67
2023/04/08 02:29:14;;;;;;;14.63;7.80;;;10.10;99.90;;;;;;5075626;28;20210;-67
2023/04/08 02:31:42;;;;;;;11.43;7.97;;;10.10;99.90;;;;;;5075549;28;20208;-67
2023/04/08 02:34:09;;;;;;;11.43;7.60;;;10.10;99.90;;;;;;5088668;28;20176;-68
2023/04/08 02:36:37;;;;;;;11.53;8.37;;;10.10;99.90;;;;;;5073230;28;20172;-67
2023/04/08 02:39:03;;;;;;;10.30;7.90;;;10.00;99.90;;;;;;5070180;28;20204;-67
2023/04/08 02:41:30;;;;;;;12.50;8.10;;;10.10;99.90;;;;;;5076794;28;20237;-69
2023/04/08 02:43:56;;;;;;;13.00;8.80;;;10.00;99.90;;;;;;5081093;28;20219;-67
2023/04/08 02:46:22;;;;;;;10.87;8.10;;;9.90;99.90;;;;;;5069805;28;20196;-68
2023/04/08 02:48:47;;;;;;;11.93;8.02;;;9.90;99.90;;;;;;5073129;28;20214;-68
2023/04/08 02:51:18;;;;;;;13.10;8.20;;;9.90;99.90;;;;;;5077910;28;20342;-69
2023/04/08 02:53:43;;;;;;;10.43;7.80;;;10.00;99.90;;;;;;5077000;28;20200;-69
2023/04/08 02:56:12;;;;;;;11.63;8.10;;;9.90;99.90;;;;;;5067967;28;20195;-69
2023/04/08 02:58:40;;;;;;;13.77;9.07;;;9.90;99.90;;;;;;5107557;28;20234;-68
2023/04/08 03:01:08;;;;;;;13.13;8.90;;;9.90;99.90;;;;;;5083517;28;20212;-70
2023/04/08 03:03:34;;;;;;;14.47;9.03;;;9.90;99.90;;;;;;5063726;28;20172;-70
2023/04/08 03:06:00;;;;;;;12.70;8.90;;;9.90;99.90;;;;;;5075854;28;20187;-70
2023/04/08 03:08:31;;;;;;;14.47;8.83;;;9.80;99.90;;;;;;5077185;28;20211;-70
2023/04/08 03:10:57;;;;;;;13.00;8.93;;;9.80;99.90;;;;;;5078925;28;20188;-71
2023/04/08 03:13:25;;;;;;;14.33;9.27;;;9.80;99.90;;;;;;5088359;28;20178;-71
2023/04/08 03:15:50;;;;;;;11.83;9.00;;;9.80;99.90;;;;;;5079229;28;20187;-71
2023/04/08 03:18:16;;;;;;;13.50;9.93;;;9.80;99.90;;;;;;5073544;28;20172;-70
2023/04/08 03:20:42;;;;;;;13.57;9.90;;;9.80;99.90;;;;;;5097480;28;20171;-71
2023/04/08 03:23:08;;;;;;;13.00;9.60;;;9.80;99.90;;;;;;5074021;28;20279;-72
2023/04/08 03:25:35;;;;;;;16.00;11.50;;;9.80;99.90;;;;;;5074376;28;20198;-70
2023/04/08 03:28:04;;;;;;;14.90;9.90;;;9.80;99.90;;;;;;5096967;28;20269;-70
2023/04/08 03:30:30;;;;;;;14.37;9.73;;;9.80;99.90;;;;;;5070309;28;20206;-70
2023/04/08 03:32:56;;;;;;;15.40;10.07;;;9.70;99.90;;;;;;5077622;28;20189;-70
2023/04/08 03:35:23;;;;;;;16.37;10.43;;;9.70;99.90;;;;;;5079054;28;20177;-70
2023/04/08 03:37:49;;;;;;;16.97;10.27;;;9.80;99.90;;;;;;5080946;28;20208;-69
2023/04/08 03:40:19;;;;;;;16.03;10.20;;;9.70;99.90;;;;;;5075471;28;20172;-70
2023/04/08 03:42:48;;;;;;;17.17;10.33;;;9.70;99.90;;;;;;5072105;28;20179;-69
2023/04/08 03:45:15;;;;;;;18.23;10.33;;;9.70;99.90;;;;;;5084345;28;20196;-70
2023/04/08 03:47:43;;;;;;;17.63;10.57;;;9.70;99.90;;;;;;5091252;28;20184;-69
2023/04/08 03:50:12;;;;;;;14.77;11.37;;;9.70;99.90;;;;;;5079812;28;20253;-65
2023/04/08 03:52:39;;;;;;;15.83;10.93;;;9.70;99.90;;;;;;5072519;28;20232;-70
2023/04/08 03:55:05;;;;;;;15.20;10.33;;;9.70;99.90;;;;;;5095204;28;20312;-71
2023/04/08 03:57:31;;;;;;;15.97;10.43;;;9.70;99.90;;;;;;5076435;28;20251;-70
2023/04/08 03:59:59;;;;;;;13.83;9.73;;;9.70;99.90;;;;;;5112291;28;20182;-71
2023/04/08 04:02:25;;;;;;;16.80;10.23;;;9.80;99.90;;;;;;5076852;28;20200;-71
2023/04/08 04:04:50;;;;;;;15.27;11.40;;;9.80;99.90;;;;;;5113340;28;21155;-70
2023/04/08 04:07:21;;;;;;;18.33;12.03;;;9.70;99.90;;;;;;5070593;28;20272;-71
2023/04/08 04:09:52;;;;;;;14.80;10.47;;;9.80;99.90;;;;;;5068706;28;20207;-71
2023/04/08 04:12:20;;;;;;;16.30;11.67;;;9.70;99.90;;;;;;5111224;28;20180;-68
2023/04/08 04:14:46;;;;;;;18.87;11.40;;;9.70;99.90;;;;;;5077637;28;20172;-70
2023/04/08 04:17:11;;;;;;;17.03;10.93;;;9.70;99.90;;;;;;5078367;28;20186;-71
2023/04/08 04:19:37;;;;;;;17.37;10.93;;;9.70;99.90;;;;;;5077772;28;20183;-69
2023/04/08 04:22:05;;;;;;;14.93;10.83;;;9.70;99.90;;;;;;5079120;28;20195;-66
2023/04/08 04:24:35;;;;;;;19.50;11.50;;;9.80;99.90;;;;;;5071858;28;20184;-71
2023/04/08 04:27:03;;;;;;;17.13;10.93;;;9.70;99.90;;;;;;5095279;28;20200;-71
2023/04/08 04:29:32;;;;;;;17.57;11.17;;;9.80;99.90;;;;;;5079140;28;20215;-70
2023/04/08 04:32:00;;;;;;;16.57;11.37;;;9.80;99.90;;;;;;5102476;28;20248;-71
2023/04/08 04:34:26;;;;;;;15.93;11.37;;;9.80;99.90;;;;;;5096867;28;20182;-69
2023/04/08 04:36:56;;;;;;;16.63;11.57;;;9.80;99.90;;;;;;5077922;28;20176;-70
2023/04/08 04:39:22;;;;;;;16.87;12.23;;;9.80;99.90;;;;;;5070282;28;20179;-70
2023/04/08 04:41:48;;;;;;;18.77;12.57;;;9.80;99.90;;;;;;5077687;28;20191;-70
2023/04/08 04:44:14;;;;;;;18.97;12.63;;;9.80;99.90;;;;;;5082212;28;20202;-71
2023/04/08 04:46:42;;;;;;;16.43;12.33;;;9.80;99.90;;;;;;5088900;28;20317;-71
2023/04/08 04:49:08;;;;;;;17.93;12.57;;;9.90;99.90;;;;;;5076438;28;20743;-70
2023/04/08 04:51:36;;;;;;;18.87;12.60;;;9.80;99.90;;;;;;5109376;28;20447;-70
2023/04/08 04:54:02;;;;;;;17.20;11.60;;;9.80;99.90;;;;;;5067478;28;20222;-71
2023/04/08 04:56:29;;;;;;;18.97;12.43;;;9.80;99.90;;;;;;5110093;28;20172;-71
2023/04/08 04:58:58;;;;;;;20.03;12.50;;;9.80;99.90;;;;;;5078660;28;20168;-71
2023/04/08 05:01:23;;;;;;;18.77;11.93;;;9.80;99.90;;;;;;5078528;28;20192;-70
2023/04/08 05:03:51;;;;;;;17.95;12.35;;;9.80;99.90;;;;;;5078595;28;20238;-71
2023/04/08 05:06:19;;;;;;;21.50;12.63;;;9.80;99.90;;;;;;5069254;28;20179;-71
2023/04/08 05:08:45;;;;;;;17.77;11.53;;;9.90;99.90;;;;;;5073137;28;20187;-71
2023/04/08 05:11:13;;;;;;;20.30;11.88;;;9.80;99.90;;;;;;5112167;28;20188;-71
2023/04/08 05:13:40;;;;;;;20.00;13.30;;;9.80;99.90;;;;;;5110007;28;20171;-71
2023/04/08 05:16:09;;;;;;;18.35;12.18;;;9.80;99.90;;;;;;5093940;28;20221;-71
2023/04/08 05:18:35;;;;;;;21.47;13.27;;;9.80;99.90;;;;;;5101125;28;20171;-73
2023/04/08 05:21:03;;;;;;;19.03;12.53;;;9.90;99.90;;;;;;5089881;28;20173;-69
2023/04/08 05:23:29;;;;;;;21.17;12.87;;;9.80;99.90;;;;;;5080109;28;20204;-71
2023/04/08 05:25:57;;;;;;;18.35;12.05;;;9.80;99.90;;;;;;5086019;28;20218;-70
2023/04/08 05:28:25;;;;;;;19.13;13.17;;;10.00;99.90;;;;;;5093837;28;20182;-68
2023/04/08 05:30:53;;;;;;;21.87;13.27;;;9.80;99.90;;;;;;5096218;28;20191;-73
2023/04/08 05:33:21;;;;;;;19.17;11.63;;;9.80;99.90;;;;;;5117560;28;20180;-71
2023/04/08 05:35:49;;;;;;;19.30;12.57;;;9.80;99.90;;;;;;5078780;28;20186;-71
2023/04/08 05:38:15;;;;;;;18.30;12.70;;;9.90;99.90;;;;;;5077566;28;20160;-73
2023/04/08 05:40:41;;;;;;;19.37;13.37;;;9.90;99.90;;;;;;5081181;28;20252;-72
2023/04/08 05:43:06;;;;;;;20.90;13.00;;;9.90;99.90;;;;;;5076207;28;20201;-71
2023/04/08 05:45:32;;;;;;;20.63;12.57;;;9.90;99.90;;;;;;5078348;28;20175;-69
2023/04/08 05:47:57;;;;;;;22.37;13.27;;;9.80;99.90;;;;;;5108027;27;20235;-71
2023/04/08 05:50:25;;;;;;;23.53;12.90;;;9.90;99.90;;;;;;5076291;28;20187;-71
2023/04/08 05:52:54;;;;;;;22.03;13.63;;;9.80;99.90;;;;;;5083077;28;20261;-71
2023/04/08 05:55:20;;;;;;;19.57;13.13;;;9.90;99.90;;;;;;5105013;28;20223;-72
2023/04/08 05:57:47;;;;;;;20.37;13.00;;;10.00;99.90;;;;;;5072666;28;20179;-71
2023/04/08 06:00:16;;;;;;;20.37;13.60;;;10.00;99.90;;;;;;5072810;28;20207;-72
2023/04/08 06:02:42;;;;;;;20.88;12.77;;;10.00;99.90;;;;;;5094424;28;20213;-70
2023/04/08 06:05:08;;;;;;;17.90;12.30;;;10.10;99.90;;;;;;5076046;28;20179;-71
2023/04/08 06:07:33;;;;;;;19.90;12.57;;;10.10;99.90;;;;;;5070696;28;20183;-70
2023/04/08 06:10:01;;;;;;;21.52;14.02;;;10.10;99.90;;;;;;5075271;28;20203;-70
2023/04/08 06:12:27;;;;;;;21.55;13.35;;;10.10;99.90;;;;;;5081331;28;20294;-71
2023/04/08 06:14:55;;;;;;;22.95;14.45;;;10.10;99.90;;;;;;5074724;28;20291;-70
2023/04/08 06:17:22;;;;;;;23.33;15.47;;;10.20;99.90;;;;;;5070333;28;20172;-70
2023/04/08 06:19:48;;;;;;;23.33;14.45;;;10.20;99.90;;;;;;5097593;28;20179;-69
2023/04/08 06:22:14;;;;;;;21.47;13.67;;;10.20;99.90;;;;;;5077354;28;20215;-70
2023/04/08 06:24:40;;;;;;;22.23;14.00;;;10.20;99.90;;;;;;5094404;28;20230;-70
2023/04/08 06:27:06;;;;;;;25.60;15.30;;;10.10;99.90;;;;;;5094936;28;20196;-70
2023/04/08 06:29:34;;;;;;;25.90;16.25;;;10.20;99.90;;;;;;5084302;28;20214;-70
2023/04/08 06:32:00;;;;;;;26.73;16.20;;;10.20;99.90;;;;;;5077856;28;20183;-70
2023/04/08 06:34:25;;;;;;;27.58;16.80;;;10.20;99.90;;;;;;5084735;28;20225;-72
2023/04/08 06:36:53;;;;;;;26.77;16.23;;;10.20;99.90;;;;;;5077553;28;20176;-72
2023/04/08 06:39:20;;;;;;;23.40;14.95;;;10.20;99.90;;;;;;5081466;28;20276;-70
2023/04/08 06:41:46;;;;;;;21.90;14.67;;;10.20;99.90;;;;;;5094197;28;20331;-72
2023/04/08 06:44:11;;;;;;;28.17;16.15;;;10.20;99.90;;;;;;5094112;28;20470;-72
2023/04/08 06:46:39;;;;;;;24.77;15.77;;;10.20;99.90;;;;;;5089855;28;20203;-69
2023/04/08 06:49:09;;;;;;;23.45;15.70;;;10.20;99.90;;;;;;5078802;28;20199;-72
2023/04/08 06:51:35;;;;;;;22.07;15.23;;;10.30;99.90;;;;;;5078434;28;20191;-72
2023/04/08 06:54:03;;;;;;;22.67;14.90;;;10.20;99.90;;;;;;5079845;28;20186;-71
2023/04/08 06:56:29;;;;;;;25.75;15.10;;;10.20;99.90;;;;;;5083379;28;20263;-72
2023/04/08 06:58:54;;;;;;;21.92;13.85;;;10.20;99.90;;;;;;5080043;28;20219;-72
2023/04/08 07:01:20;;;;;;;22.88;13.50;;;10.20;99.90;;;;;;5078516;28;20178;-72
2023/04/08 07:03:51;;;;;;;24.73;14.73;;;10.20;99.90;;;;;;5075863;28;20183;-72
2023/04/08 07:06:16;;;;;;;21.83;13.93;;;10.20;99.90;;;;;;5092390;28;20168;-74
2023/04/08 07:08:42;;;;;;;25.02;15.82;;;10.20;99.90;;;;;;5080500;28;20199;-72
2023/04/08 07:11:10;;;;;;;21.48;14.57;;;10.20;99.90;;;;;;5098617;28;20237;-72
2023/04/08 07:13:38;;;;;;;23.15;13.90;;;10.30;99.90;;;;;;5069925;28;20210;-73
2023/04/08 07:16:06;;;;;;;21.98;13.95;;;10.20;99.90;;;;;;5072746;28;20172;-73
2023/04/08 07:18:35;;;;;;;24.33;15.15;;;10.30;99.90;;;;;;5070985;28;20183;-73
2023/04/08 07:21:01;;;;;;;21.45;14.20;;;10.30;99.90;;;;;;5074396;28;20203;-74
2023/04/08 07:23:28;;;;;;;21.23;13.68;;;10.30;99.90;;;;;;5071761;28;20192;-73
2023/04/08 07:25:54;;;;;;;24.02;14.50;;;10.30;99.90;;;;;;5072485;28;20196;-71
2023/04/08 07:28:27;;;;;;;26.48;16.85;;;10.40;99.90;;;;;;5081458;28;20183;-70
2023/04/08 07:30:56;;;;;;;22.10;14.93;;;10.40;99.90;;;;;;5075238;28;20211;-71
2023/04/08 07:33:22;;;;;;;25.50;15.68;;;10.40;99.90;;;;;;5073314;28;20169;-71
2023/04/08 07:35:48;;;;;;;22.15;15.32;;;10.50;99.90;;;;;;5075742;28;20189;-73
2023/04/08 07:38:14;;;;;;;22.23;15.15;;;10.50;99.90;;;;;;5071801;28;20259;-73
2023/04/08 07:40:42;;;;;;;23.15;15.60;;;10.50;99.90;;;;;;5070003;28;20195;-73
2023/04/08 07:43:10;;;;;;;22.05;14.77;;;10.60;99.90;;;;;;5062972;28;20197;-73
2023/04/08 07:45:35;;;;;;;23.13;14.70;;;10.80;99.90;;;;;;5081009;28;20183;-72
2023/04/08 07:48:01;;;;;;;27.25;17.58;;;10.80;99.90;;;;;;5074224;28;20173;-73
2023/04/08 07:50:31;;;;;;;24.33;15.88;;;10.90;99.90;;;;;;5068644;28;20207;-73
2023/04/08 07:52:59;;;;;;;24.58;16.98;;;10.90;99.90;;;;;;5066898;28;20180;-70
2023/04/08 07:55:24;;;;;;;23.25;15.85;;;10.90;99.90;;;;;;5073647;28;20770;-72
2023/04/08 07:57:50;;;;;;;24.65;16.33;;;10.90;99.90;;;;;;5077958;28;20210;-73
2023/04/08 08:00:20;;;;;;;23.73;14.95;;;11.10;99.90;;;;;;5085095;28;20191;-73
2023/04/08 08:02:51;;;;;;;21.67;15.15;;;11.10;99.90;;;;;;5094269;28;20268;-71
2023/04/08 08:05:16;;;;;;;25.00;17.42;;;11.10;99.90;;;;;;5078880;28;20276;-73
2023/04/08 08:07:44;;;;;;;21.27;15.52;;;11.20;99.90;;;;;;5068127;28;20216;-72
2023/04/08 08:10:10;;;;;;;22.20;14.52;;;11.20;99.90;;;;;;5079881;28;20210;-71
2023/04/08 08:12:36;;;;;;;21.13;14.88;;;11.20;99.90;;;;;;5091029;28;20164;-73
2023/04/08 08:15:02;;;;;;;20.73;14.43;;;11.30;99.90;;;;;;5073591;28;20176;-73
2023/04/08 08:17:29;;;;;;;21.23;14.88;;;11.30;99.90;;;;;;5080444;28;20180;-73
2023/04/08 08:19:58;;;;;;;21.13;14.65;;;11.30;99.90;;;;;;5079522;28;20176;-72
2023/04/08 08:22:23;;;;;;;23.83;16.70;;;11.30;99.90;;;;;;5081263;28;20195;-73
2023/04/08 08:24:55;;;;;;;22.38;15.52;;;11.30;99.90;;;;;;5079213;28;20230;-72
2023/04/08 08:27:21;;;;;;;21.92;15.35;;;11.30;99.90;;;;;;5071792;28;20177;-73
2023/04/08 08:29:46;;;;;;;22.50;15.23;;;11.30;99.90;;;;;;5071205;28;20217;-72
2023/04/08 08:32:12;;;;;;;25.35;16.17;;;11.40;99.90;;;;;;5079281;28;20163;-73
2023/04/08 08:34:38;;;;;;;25.60;16.30;;;11.40;99.90;;;;;;5079685;28;20233;-74
2023/04/08 08:37:03;;;;;;;24.20;15.32;;;11.40;99.90;;;;;;5079822;28;20168;-74
2023/04/08 08:39:29;;;;;;;21.35;15.02;;;11.50;99.90;;;;;;5079534;28;20229;-74
2023/04/08 08:41:55;;;;;;;26.08;16.73;;;11.50;99.90;;;;;;5079547;28;20262;-73
2023/04/08 08:44:24;;;;;;;23.13;15.30;;;11.50;99.90;;;;;;5079304;28;20178;-73
2023/04/08 08:46:50;;;;;;;23.70;16.05;;;11.60;99.90;;;;;;5079233;28;20180;-74
2023/04/08 08:49:18;;;;;;;22.92;15.10;;;11.60;99.90;;;;;;5079208;28;20291;-74
2023/04/08 08:51:49;;;;;;;24.50;15.00;;;11.60;99.90;;;;;;5079374;28;20168;-73
2023/04/08 08:54:19;;;;;;;23.40;16.02;;;11.60;99.90;;;;;;5079150;28;20160;-73
2023/04/08 08:56:45;;;;;;;22.60;15.48;;;11.70;99.90;;;;;;5079361;28;20261;-73
2023/04/08 08:59:13;;;;;;;24.23;15.50;;;11.70;99.90;;;;;;5079318;28;20184;-73
2023/04/08 09:01:42;;;;;;;23.95;16.25;;;11.70;99.90;;;;;;5078934;28;20182;-74
2023/04/08 09:04:18;;;;;;;22.17;14.15;;;11.80;99.90;;;;;;5079372;28;20183;-73
2023/04/08 09:06:46;;;;;;;26.60;17.55;;;11.80;99.90;;;;;;5079447;28;20381;-74
2023/04/08 09:09:12;;;;;;;24.30;17.10;;;11.90;99.90;;;;;;5078424;28;20200;-74
2023/04/08 09:11:40;;;;;;;26.23;17.27;;;11.90;99.90;;;;;;5078975;28;20192;-73
2023/04/08 09:14:23;;;;;;;25.33;16.55;;;11.90;99.90;;;;;;5079242;28;20168;-74
2023/04/08 09:16:50;;;;;;;24.63;17.33;;;11.90;99.90;;;;;;5078690;28;20184;-74
2023/04/08 09:19:16;;;;;;;23.70;16.15;;;12.00;99.90;;;;;;5078492;28;20195;-74
2023/04/08 09:21:44;;;;;;;28.80;18.67;;;12.00;99.90;;;;;;5078911;28;20168;-73
2023/04/08 09:24:27;;;;;;;28.17;18.58;;;12.10;99.90;;;;;;5078870;28;20172;-74
2023/04/08 09:26:53;;;;;;;23.73;16.83;;;12.10;99.90;;;;;;5078576;28;20209;-74
2023/04/08 09:29:23;;;;;;;27.25;19.20;;;12.10;99.90;;;;;;5078672;28;20203;-75
2023/04/08 09:31:53;;;;;;;25.92;18.42;;;12.10;99.90;;;;;;5093211;28;20247;-72
2023/04/08 09:34:20;;;;;;;25.98;17.38;;;12.20;99.90;;;;;;5089369;28;20206;-74
2023/04/08 09:36:47;;;;;;;25.40;17.20;;;12.20;99.90;;;;;;5080541;28;20180;-75
2023/04/08 09:39:16;;;;;;;26.42;18.33;;;12.30;99.90;;;;;;5079660;28;20196;-73
2023/04/08 09:41:44;;;;;;;31.83;20.52;;;12.20;99.90;;;;;;5078755;28;20200;-74
2023/04/08 09:44:11;;;;;;;28.13;18.73;;;12.30;99.90;;;;;;5078752;28;20182;-74
2023/04/08 09:46:49;;;;;;;23.58;17.50;;;12.40;99.90;;;;;;5078359;28;20251;-71
2023/04/08 09:49:25;;;;;;;24.98;17.13;;;12.40;99.90;;;;;;5078199;28;20203;-74
2023/04/08 09:52:32;;;;;;;25.10;17.98;;;12.50;99.90;;;;;;5078275;28;20172;-74
2023/04/08 09:55:07;;;;;;;24.27;17.58;;;12.50;99.90;;;;;;5046434;28;20270;-71
2023/04/08 09:57:40;;;;;;;23.38;17.17;;;12.60;99.90;;;;;;5058436;28;20179;-74
2023/04/08 10:00:11;;;;;;;24.30;18.02;;;12.60;99.90;;;;;;5058065;28;20169;-74
2023/04/08 10:02:52;;;;;;;23.58;17.05;;;12.70;99.90;;;;;;5057835;28;20299;-74
2023/04/08 10:05:21;;;;;;;21.90;15.98;;;12.80;99.90;;;;;;5058082;28;20168;-74
2023/04/08 10:07:52;;;;;;;24.30;17.02;;;12.90;99.90;;;;;;5058093;28;20267;-76
2023/04/08 10:10:19;;;;;;;24.17;16.98;;;13.00;99.90;;;;;;5057713;28;20228;-74
2023/04/08 10:12:45;;;;;;;24.42;16.52;;;13.10;99.90;;;;;;5058143;28;20173;-72
2023/04/08 10:15:36;;;;;;;24.05;17.02;;;13.20;99.90;;;;;;5057840;28;20199;-74
2023/04/08 10:18:01;;;;;;;21.35;14.63;;;13.30;99.90;;;;;;5057960;28;20247;-74
2023/04/08 10:20:33;;;;;;;22.25;15.50;;;13.40;99.90;;;;;;5058419;28;20407;-75
2023/04/08 10:23:00;;;;;;;22.33;16.13;;;13.40;99.90;;;;;;5062193;28;20199;-74
2023/04/08 10:25:30;;;;;;;22.05;15.82;;;13.60;99.90;;;;;;5065633;28;20199;-74
2023/04/08 10:27:56;;;;;;;23.13;16.42;;;13.70;99.90;;;;;;5081578;28;20183;-72
2023/04/08 10:30:30;;;;;;;23.77;17.48;;;13.80;99.90;;;;;;5081267;28;20252;-76
2023/04/08 10:33:02;;;;;;;24.00;16.88;;;13.90;99.90;;;;;;5081179;28;20195;-75
2023/04/08 10:35:36;;;;;;;23.77;16.38;;;13.90;99.90;;;;;;5081602;28;20237;-74
2023/04/08 10:38:02;;;;;;;20.00;14.77;;;14.10;99.90;;;;;;5081375;28;20168;-74
2023/04/08 10:40:28;;;;;;;21.02;15.25;;;14.10;99.90;;;;;;5081198;28;20199;-76
2023/04/08 10:42:57;;;;;;;20.10;14.70;;;14.10;99.90;;;;;;5081143;28;20229;-74
2023/04/08 10:45:23;;;;;;;22.80;16.02;;;14.20;99.90;;;;;;5081036;28;20176;-73
2023/04/08 10:47:49;;;;;;;21.25;15.15;;;14.20;99.90;;;;;;5081080;28;20196;-73
2023/04/08 10:50:19;;;;;;;19.38;14.45;;;14.20;99.90;;;;;;5080820;28;20287;-74
2023/04/08 10:52:49;;;;;;;19.17;13.98;;;14.20;99.90;;;;;;5081036;28;20176;-74
2023/04/08 10:55:21;;;;;;;20.27;14.40;;;14.20;99.90;;;;;;5080853;28;20199;-74
2023/04/08 10:57:46;;;;;;;21.02;14.85;;;14.10;99.90;;;;;;5081023;28;20195;-73
2023/04/08 11:00:30;;;;;;;21.70;14.65;;;14.20;99.90;;;;;;5081216;28;20229;-75
2023/04/08 11:03:00;;;;;;;22.05;15.25;;;14.20;99.90;;;;;;5080819;28;20199;-74
2023/04/08 11:05:30;;;;;;;21.83;15.07;;;14.10;99.90;;;;;;5080610;28;20172;-75
2023/04/08 11:07:59;;;;;;;21.02;14.77;;;14.10;99.90;;;;;;5080630;28;20195;-74
2023/04/08 11:10:28;;;;;;;21.13;15.15;;;14.00;99.90;;;;;;5080707;28;20199;-73
2023/04/08 11:12:54;;;;;;;21.85;15.15;;;14.10;99.90;;;;;;5080498;28;20172;-74
2023/04/08 11:15:21;;;;;;;24.23;17.15;;;14.00;99.90;;;;;;5080355;28;20176;-74
2023/04/08 11:17:48;;;;;;;23.52;16.30;;;14.00;99.90;;;;;;5080315;28;20195;-75
2023/04/08 11:20:13;;;;;;;23.80;16.25;;;14.00;99.90;;;;;;5080024;28;20172;-74
2023/04/08 11:22:39;;;;;;;23.08;15.35;;;14.10;99.90;;;;;;5080304;28;20172;-73
2023/04/08 11:25:09;;;;;;;23.35;15.95;;;14.10;99.90;;;;;;5080132;28;20211;-75
2023/04/08 11:27:36;;;;;;;24.88;16.25;;;14.20;99.90;;;;;;5080552;28;20201;-75
2023/04/08 11:30:05;;;;;;;24.98;16.88;;;14.30;99.90;;;;;;5080177;28;20230;-74
2023/04/08 11:32:31;;;;;;;24.52;16.15;;;14.40;99.90;;;;;;5079798;28;20215;-73
2023/04/08 11:35:00;;;;;;;27.83;17.35;;;14.40;99.90;;;;;;5080542;28;20450;-74
2023/04/08 11:37:26;;;;;;;25.85;16.80;;;14.50;99.90;;;;;;5080531;28;20168;-74
2023/04/08 11:39:56;;;;;;;28.20;17.15;;;14.50;99.90;;;;;;5080335;28;20178;-76
2023/04/08 11:42:28;;;;;;;29.35;18.48;;;14.50;99.90;;;;;;5080407;28;20221;-78
2023/04/08 11:44:57;;;;;;;27.98;16.40;;;14.40;99.90;;;;;;5079929;28;20191;-77
2023/04/08 11:47:33;;;;;;;30.08;18.58;;;14.40;99.90;;;;;;5078757;28;20258;-69
2023/04/08 11:50:01;;;;;;;29.35;17.20;;;14.40;99.90;;;;;;5079971;28;20203;-69
2023/04/08 11:52:49;;;;;;;29.10;18.10;;;14.40;99.90;;;;;;5064471;28;20207;-68
2023/04/08 11:55:25;;;;;;;29.58;17.65;;;14.30;99.90;;;;;;5077003;28;20161;-68
2023/04/08 11:57:52;;;;;;;29.23;17.95;;;14.20;99.90;;;;;;5059846;28;20176;-68
2023/04/08 12:00:21;;;;;;;29.83;17.85;;;14.20;99.90;;;;;;5093030;28;20196;-66
2023/04/08 12:02:52;;;;;;;28.02;17.40;;;14.20;99.90;;;;;;5093013;28;20173;-68
2023/04/08 12:05:18;;;;;;;33.42;18.77;;;14.00;99.90;;;;;;5093017;28;20225;-68
2023/04/08 12:07:47;;;;;;;29.23;18.33;;;13.90;99.90;;;;;;5092882;28;20196;-69
2023/04/08 12:10:12;;;;;;;30.17;18.58;;;13.90;99.90;;;;;;5092831;28;20196;-69
2023/04/08 12:12:41;;;;;;;30.77;18.98;;;13.80;99.90;;;;;;5092778;28;20279;-68
2023/04/08 12:15:07;;;;;;;33.47;18.95;;;13.80;99.90;;;;;;5092764;28;20219;-67
2023/04/08 12:17:34;;;;;;;29.23;17.58;;;13.70;99.90;;;;;;5092736;28;20175;-68
2023/04/08 12:20:00;;;;;;;27.35;16.55;;;13.70;99.90;;;;;;5093077;28;20184;-67
2023/04/08 12:22:28;;;;;;;26.42;16.48;;;13.70;99.90;;;;;;5108430;28;20199;-69
2023/04/08 12:24:53;;;;;;;28.52;16.73;;;13.60;99.90;;;;;;5078844;28;20183;-69
2023/04/08 12:27:19;;;;;;;29.40;16.83;;;13.60;99.90;;;;;;5079054;28;20178;-69
2023/04/08 12:29:48;;;;;;;27.65;17.40;;;13.60;99.90;;;;;;5079206;28;20211;-68
2023/04/08 12:32:17;;;;;;;29.85;16.73;;;13.60;99.90;;;;;;5079211;28;20270;-68
2023/04/08 12:34:42;;;;;;;25.00;16.83;;;13.60;99.90;;;;;;5078873;28;20168;-68
2023/04/08 12:37:08;;;;;;;28.85;17.75;;;13.70;99.90;;;;;;5078654;28;20238;-68